Time;durP1;ratioP1;P1;durP2;ratioP2;P2;SDS_P1;SDS_P2;PMS_P1;PMS_P2;Temp;Humidity;BMP_temperature;BMP_pressure;BME280_temperature;BME280_humidity;BME280_pressure;Samples;Min_cycle;Max_cycle;Signal;HPM_P1;HPM_P2
2023/10/21 00:00:46;;;;;;;4.10;0.97;;;;;;;;;;4973797;28;20215;-37
2023/10/21 00:03:32;;;;;;;2.50;1.77;;;;;;;;;;5009154;28;20215;-35
2023/10/21 00:09:04;;;;;;;1.10;1.10;;;;;;;;;;5028340;28;20227;-39
2023/10/21 00:11:47;;;;;;;0.83;0.80;;;;;;;;;;5045828;28;20238;-37
2023/10/21 00:14:19;;;;;;;0.80;0.80;;;;;;;;;;5025216;28;20225;-35
2023/10/21 00:19:53;;;;;;;1.20;0.93;;;;;;;;;;5002840;28;20239;-40
2023/10/21 00:22:34;;;;;;;0.80;0.80;;;;;;;;;;5022340;28;20218;-35
2023/10/21 00:25:23;;;;;;;1.90;1.00;;;;;;;;;;5029895;28;20296;-37
2023/10/21 00:27:56;;;;;;;1.83;0.83;;;;;;;;;;5032346;28;20265;-39
2023/10/21 00:30:34;;;;;;;0.83;0.83;;;;;;;;;;5030375;28;21121;-38
2023/10/21 00:33:03;;;;;;;0.70;0.70;;;;;;;;;;5026476;28;20228;-34
2023/10/21 00:35:48;;;;;;;0.70;0.70;;;;;;;;;;5031628;28;20215;-41
2023/10/21 00:38:24;;;;;;;0.53;0.53;;;;;;;;;;5022568;28;20218;-35
2023/10/21 00:41:07;;;;;;;0.63;0.60;;;;;;;;;;5019838;28;20207;-41
2023/10/21 00:43:43;;;;;;;1.57;0.83;;;;;;;;;;5016642;28;20211;-35
2023/10/21 00:46:35;;;;;;;0.60;0.60;;;;;;;;;;5024659;28;20215;-37
2023/10/21 00:49:09;;;;;;;0.70;0.70;;;;;;;;;;5030347;28;20226;-37
2023/10/21 00:51:45;;;;;;;1.03;0.70;;;;;;;;;;5032726;28;20207;-40
2023/10/21 00:54:26;;;;;;;0.50;0.50;;;;;;;;;;5027267;28;20269;-35
2023/10/21 01:00:16;;;;;;;1.03;0.70;;;;;;;;;;5013517;28;20226;-36
2023/10/21 01:03:00;;;;;;;0.50;0.50;;;;;;;;;;5017666;28;20304;-38
2023/10/21 01:05:39;;;;;;;0.70;0.70;;;;;;;;;;5030148;28;20234;-38
2023/10/21 01:08:21;;;;;;;1.13;0.53;;;;;;;;;;5026547;28;20243;-41
2023/10/21 01:14:09;;;;;;;1.13;1.00;;;;;;;;;;5025451;28;20217;-38
2023/10/21 01:16:51;;;;;;;0.60;0.60;;;;;;;;;;5023894;28;20207;-37
2023/10/21 01:22:06;;;;;;;0.50;0.50;;;;;;;;;;5014246;28;20214;-37
2023/10/21 01:25:04;;;;;;;1.17;0.50;;;;;;;;;;5018239;28;20199;-38
2023/10/21 01:27:46;;;;;;;2.20;1.00;;;;;;;;;;5030236;28;20211;-37
2023/10/21 01:30:29;;;;;;;0.87;0.60;;;;;;;;;;5039462;28;20221;-37
2023/10/21 01:33:01;;;;;;;2.40;0.50;;;;;;;;;;5038383;28;20214;-40
2023/10/21 01:35:43;;;;;;;;;;;;;;;;;;;;;
2023/10/21 01:38:24;;;;;;;1.43;0.50;;;;;;;;;;5021306;28;20216;-40
2023/10/21 01:41:17;;;;;;;0.70;0.70;;;;;;;;;;5030655;28;20325;-39
2023/10/21 01:43:52;;;;;;;0.77;0.77;;;;;;;;;;4941095;28;20201;-41
2023/10/21 01:46:48;;;;;;;2.37;0.70;;;;;;;;;;5002714;28;20268;-40
2023/10/21 01:49:20;;;;;;;0.50;0.50;;;;;;;;;;5033313;28;20278;-35
2023/10/21 01:57:20;;;;;;;0.60;0.60;;;;;;;;;;5025448;28;20220;-43
2023/10/21 02:00:18;;;;;;;0.60;0.60;;;;;;;;;;5032782;28;20270;-38
2023/10/21 02:02:57;;;;;;;0.50;0.50;;;;;;;;;;5037619;28;20210;-38
2023/10/21 02:05:29;;;;;;;0.70;0.60;;;;;;;;;;5031045;28;20219;-42
2023/10/21 02:08:19;;;;;;;2.33;0.87;;;;;;;;;;5024974;28;20202;-38
2023/10/21 02:10:46;;;;;;;0.60;0.50;;;;;;;;;;5035843;28;20205;-33
2023/10/21 02:13:40;;;;;;;;;;;;;;;;;;;;;
2023/10/21 02:16:35;;;;;;;0.63;0.60;;;;;;;;;;5021628;28;20206;-33
2023/10/21 02:19:15;;;;;;;3.33;1.20;;;;;;;;;;5028048;28;20234;-36
2023/10/21 02:21:59;;;;;;;0.60;0.60;;;;;;;;;;5020808;28;20206;-37
2023/10/21 02:24:39;;;;;;;0.57;0.57;;;;;;;;;;5020416;28;20206;-41
2023/10/21 02:27:19;;;;;;;1.60;0.63;;;;;;;;;;5016387;28;20238;-42
2023/10/21 02:29:49;;;;;;;0.50;0.50;;;;;;;;;;5019222;28;20239;-39
2023/10/21 02:32:30;;;;;;;2.27;0.80;;;;;;;;;;5024444;28;20207;-36
2023/10/21 02:35:08;;;;;;;0.60;0.60;;;;;;;;;;5038402;28;20297;-41
2023/10/21 02:37:45;;;;;;;0.83;0.60;;;;;;;;;;5020436;28;20272;-40
2023/10/21 02:40:33;;;;;;;1.10;0.60;;;;;;;;;;5024195;28;20220;-37
2023/10/21 02:43:14;;;;;;;0.63;0.63;;;;;;;;;;5016929;28;20314;-39
2023/10/21 02:45:44;;;;;;;0.73;0.47;;;;;;;;;;5021308;28;20203;-38
2023/10/21 02:48:21;;;;;;;0.50;0.50;;;;;;;;;;5027720;28;20217;-38
2023/10/21 02:53:47;;;;;;;;;;;;;;;;;;;;;
2023/10/21 02:56:37;;;;;;;1.70;0.40;;;;;;;;;;5022448;28;20213;-41
2023/10/21 03:02:03;;;;;;;0.50;0.50;;;;;;;;;;5017385;28;20293;-38
2023/10/21 03:04:40;;;;;;;0.53;0.53;;;;;;;;;;5023188;28;20202;-41
2023/10/21 03:07:13;;;;;;;0.60;0.60;;;;;;;;;;5018106;28;20210;-41
2023/10/21 03:09:59;;;;;;;0.20;0.20;;;;;;;;;;5015585;28;20251;-36
2023/10/21 03:12:28;;;;;;;0.83;0.50;;;;;;;;;;5022593;28;20211;-39
2023/10/21 03:15:09;;;;;;;1.40;0.37;;;;;;;;;;5012214;28;20215;-36
2023/10/21 03:17:47;;;;;;;0.23;0.23;;;;;;;;;;5023583;28;20265;-37
2023/10/21 03:20:31;;;;;;;0.30;0.30;;;;;;;;;;5018834;28;20264;-39
2023/10/21 03:23:10;;;;;;;6.87;0.50;;;;;;;;;;5007884;28;20214;-38
2023/10/21 03:26:09;;;;;;;0.50;0.50;;;;;;;;;;5024860;28;20215;-37
2023/10/21 03:28:40;;;;;;;1.33;0.40;;;;;;;;;;5015467;28;20292;-42
2023/10/21 03:31:12;;;;;;;0.40;0.40;;;;;;;;;;5018461;28;20203;-35
2023/10/21 03:33:40;;;;;;;0.30;0.30;;;;;;;;;;5023529;28;20214;-39
2023/10/21 03:36:10;;;;;;;0.33;0.30;;;;;;;;;;5027547;28;20206;-34
2023/10/21 03:39:05;;;;;;;0.30;0.30;;;;;;;;;;5011629;28;20230;-39
2023/10/21 03:41:38;;;;;;;0.73;0.47;;;;;;;;;;5013580;28;20225;-41
2023/10/21 03:44:10;;;;;;;0.53;0.40;;;;;;;;;;5010330;28;20221;-34
2023/10/21 03:46:50;;;;;;;0.30;0.30;;;;;;;;;;5020541;28;20210;-38
2023/10/21 03:49:22;;;;;;;0.47;0.33;;;;;;;;;;5020479;28;20227;-40
2023/10/21 03:51:52;;;;;;;0.40;0.40;;;;;;;;;;5012358;28;20246;-38
2023/10/21 03:54:41;;;;;;;0.47;0.40;;;;;;;;;;5021662;28;20210;-36
2023/10/21 03:57:32;;;;;;;;;;;;;;;;;;;;;
2023/10/21 04:02:57;;;;;;;0.43;0.30;;;;;;;;;;5037441;28;20280;-32
2023/10/21 04:05:35;;;;;;;0.50;0.50;;;;;;;;;;5020958;28;20242;-36
2023/10/21 04:08:13;;;;;;;0.30;0.30;;;;;;;;;;5014512;28;20202;-38
2023/10/21 04:13:40;;;;;;;0.50;0.27;;;;;;;;;;5006943;28;20210;-39
2023/10/21 04:19:10;;;;;;;0.23;0.23;;;;;;;;;;5021267;28;20262;-40
2023/10/21 04:21:46;;;;;;;0.20;0.20;;;;;;;;;;4944904;28;20237;-41
2023/10/21 04:24:20;;;;;;;0.30;0.30;;;;;;;;;;5022871;28;20203;-40
2023/10/21 04:33:12;;;;;;;0.30;0.30;;;;;;;;;;4983465;28;20261;-37
2023/10/21 04:35:47;;;;;;;0.97;0.20;;;;;;;;;;4997474;28;20203;-41
2023/10/21 04:38:19;;;;;;;1.80;0.30;;;;;;;;;;4992069;28;20203;-35
2023/10/21 04:40:55;;;;;;;0.50;0.33;;;;;;;;;;5046073;28;20226;-40
2023/10/21 04:43:27;;;;;;;1.70;0.30;;;;;;;;;;5026054;28;20209;-41
2023/10/21 04:46:19;;;;;;;0.57;0.30;;;;;;;;;;5023678;28;20233;-40
2023/10/21 04:49:08;;;;;;;0.90;0.70;;;;;;;;;;5028780;28;20266;-37
2023/10/21 04:51:52;;;;;;;0.50;0.50;;;;;;;;;;5022286;28;20325;-39
2023/10/21 04:54:37;;;;;;;0.50;0.50;;;;;;;;;;5017563;28;20234;-39
2023/10/21 04:57:20;;;;;;;0.30;0.30;;;;;;;;;;5028475;28;20209;-43
2023/10/21 05:00:15;;;;;;;0.47;0.43;;;;;;;;;;5022477;28;20241;-38
2023/10/21 05:02:57;;;;;;;0.63;0.63;;;;;;;;;;5002715;28;20259;-36
2023/10/21 05:05:45;;;;;;;0.53;0.53;;;;;;;;;;5027075;28;20211;-39
2023/10/21 05:11:41;;;;;;;0.47;0.47;;;;;;;;;;5021612;28;20211;-41
2023/10/21 05:14:15;;;;;;;1.20;0.60;;;;;;;;;;4999027;28;20206;-41
2023/10/21 05:16:50;;;;;;;0.40;0.40;;;;;;;;;;5024617;28;20208;-41
2023/10/21 05:25:26;;;;;;;1.43;1.13;;;;;;;;;;5021737;28;20249;-33
2023/10/21 05:30:57;;;;;;;1.87;1.00;;;;;;;;;;5959082;23;20236;-33
2023/10/21 05:33:26;;;;;;;0.60;0.60;;;;;;;;;;5044830;28;20210;-35
2023/10/21 05:35:54;;;;;;;0.70;0.70;;;;;;;;;;5047908;28;20210;-35
2023/10/21 05:38:21;;;;;;;0.97;0.70;;;;;;;;;;5045089;28;20202;-37
2023/10/21 05:40:49;;;;;;;0.60;0.60;;;;;;;;;;5034520;28;20237;-34
2023/10/21 05:43:16;;;;;;;0.80;0.70;;;;;;;;;;5022479;28;20768;-38
2023/10/21 05:45:46;;;;;;;0.60;0.60;;;;;;;;;;5027180;28;20206;-35
2023/10/21 05:48:13;;;;;;;0.80;0.63;;;;;;;;;;5021703;28;20199;-36
2023/10/21 05:50:41;;;;;;;1.50;0.60;;;;;;;;;;5031692;28;20207;-35
2023/10/21 05:53:08;;;;;;;2.33;0.93;;;;;;;;;;5033046;28;20207;-34
2023/10/21 05:55:41;;;;;;;1.57;0.60;;;;;;;;;;5037758;28;20205;-35
2023/10/21 05:58:08;;;;;;;2.10;0.80;;;;;;;;;;5026852;28;20207;-32
2023/10/21 06:00:36;;;;;;;0.60;0.60;;;;;;;;;;5038112;28;20241;-33
2023/10/21 06:03:05;;;;;;;0.43;0.43;;;;;;;;;;5021466;28;20202;-36
2023/10/21 06:05:32;;;;;;;0.67;0.57;;;;;;;;;;5028042;28;20210;-34
2023/10/21 06:08:00;;;;;;;0.60;0.60;;;;;;;;;;5040935;28;20207;-33
2023/10/21 06:10:28;;;;;;;0.60;0.60;;;;;;;;;;5032977;28;20222;-38
2023/10/21 06:12:55;;;;;;;0.60;0.60;;;;;;;;;;5036410;28;20481;-34
2023/10/21 06:15:23;;;;;;;0.60;0.60;;;;;;;;;;5034531;28;20211;-34
2023/10/21 06:17:50;;;;;;;1.33;1.00;;;;;;;;;;5028963;28;20231;-35
2023/10/21 06:20:18;;;;;;;3.10;0.83;;;;;;;;;;5036046;28;20226;-35
2023/10/21 06:22:45;;;;;;;0.87;0.70;;;;;;;;;;5035269;28;20206;-34
2023/10/21 06:25:14;;;;;;;0.80;0.80;;;;;;;;;;5024823;28;20621;-37
2023/10/21 06:27:41;;;;;;;0.60;0.50;;;;;;;;;;5031615;28;20203;-34
2023/10/21 06:30:10;;;;;;;1.17;0.90;;;;;;;;;;5031841;28;20235;-34
2023/10/21 06:32:37;;;;;;;0.60;0.60;;;;;;;;;;5019988;28;20227;-39
2023/10/21 06:35:04;;;;;;;0.80;0.80;;;;;;;;;;5029916;28;20198;-33
2023/10/21 06:37:32;;;;;;;0.80;0.80;;;;;;;;;;5030098;28;20202;-37
2023/10/21 06:39:59;;;;;;;0.70;0.70;;;;;;;;;;5025403;28;20230;-34
2023/10/21 06:42:28;;;;;;;2.17;1.03;;;;;;;;;;5029373;28;20234;-32
2023/10/21 06:44:57;;;;;;;0.60;0.60;;;;;;;;;;5028572;28;20755;-37
2023/10/21 06:47:24;;;;;;;0.60;0.53;;;;;;;;;;5022556;28;20207;-36
2023/10/21 06:49:52;;;;;;;2.73;1.20;;;;;;;;;;5023073;28;20222;-34
2023/10/21 06:52:20;;;;;;;0.60;0.60;;;;;;;;;;5025511;28;20208;-35
2023/10/21 06:54:47;;;;;;;3.23;0.70;;;;;;;;;;5019246;28;20218;-35
2023/10/21 06:57:20;;;;;;;0.77;0.60;;;;;;;;;;5014509;28;20319;-35
2023/10/21 06:59:49;;;;;;;0.93;0.93;;;;;;;;;;5023189;28;20250;-35
2023/10/21 07:02:17;;;;;;;0.70;0.70;;;;;;;;;;5031907;28;20233;-34
2023/10/21 07:04:44;;;;;;;0.97;0.70;;;;;;;;;;5014421;28;20878;-37
2023/10/21 07:07:13;;;;;;;0.77;0.70;;;;;;;;;;5018787;28;20214;-37
2023/10/21 07:09:40;;;;;;;1.17;0.40;;;;;;;;;;5026305;28;20230;-35
2023/10/21 07:12:08;;;;;;;0.70;0.70;;;;;;;;;;5023684;28;20203;-34
2023/10/21 07:14:35;;;;;;;0.90;0.90;;;;;;;;;;5027248;28;20215;-33
2023/10/21 07:17:03;;;;;;;2.00;0.97;;;;;;;;;;5021566;28;20203;-35
2023/10/21 07:19:32;;;;;;;0.63;0.50;;;;;;;;;;5018717;28;20230;-33
2023/10/21 07:22:04;;;;;;;0.40;0.40;;;;;;;;;;5024006;28;20231;-34
2023/10/21 07:24:32;;;;;;;0.40;0.40;;;;;;;;;;5029263;28;20214;-34
2023/10/21 07:27:01;;;;;;;0.57;0.40;;;;;;;;;;5020917;28;20196;-34
2023/10/21 07:29:28;;;;;;;0.40;0.40;;;;;;;;;;5032891;28;20229;-39
2023/10/21 07:31:55;;;;;;;1.27;0.30;;;;;;;;;;5030212;28;20217;-34
2023/10/21 07:34:23;;;;;;;0.50;0.40;;;;;;;;;;5033865;28;20202;-37
2023/10/21 07:36:51;;;;;;;2.00;0.50;;;;;;;;;;5026063;28;20217;-35
2023/10/21 07:39:19;;;;;;;0.50;0.50;;;;;;;;;;5031037;28;20230;-34
2023/10/21 07:41:46;;;;;;;0.70;0.43;;;;;;;;;;5021876;28;20300;-35
2023/10/21 07:44:13;;;;;;;1.47;0.50;;;;;;;;;;5025036;28;20202;-34
2023/10/21 07:46:41;;;;;;;0.77;0.40;;;;;;;;;;5030826;28;20202;-35
2023/10/21 07:49:08;;;;;;;0.67;0.50;;;;;;;;;;5030310;28;20227;-37
2023/10/21 07:51:36;;;;;;;0.30;0.30;;;;;;;;;;5026759;28;20293;-37
2023/10/21 07:54:03;;;;;;;0.97;0.40;;;;;;;;;;5029251;28;20211;-39
2023/10/21 07:56:30;;;;;;;0.30;0.30;;;;;;;;;;5020064;28;20290;-36
2023/10/21 07:58:57;;;;;;;1.17;0.40;;;;;;;;;;5029328;28;20302;-34
2023/10/21 08:01:25;;;;;;;0.40;0.40;;;;;;;;;;5030584;28;20219;-37
2023/10/21 08:03:52;;;;;;;0.50;0.33;;;;;;;;;;5028774;28;20215;-35
2023/10/21 08:06:19;;;;;;;0.30;0.23;;;;;;;;;;5021198;28;20477;-38
2023/10/21 08:08:48;;;;;;;0.43;0.30;;;;;;;;;;5026718;28;20227;-36
2023/10/21 08:11:15;;;;;;;0.40;0.40;;;;;;;;;;5018048;28;20199;-34
2023/10/21 08:13:42;;;;;;;2.20;0.50;;;;;;;;;;5023761;28;20214;-40
2023/10/21 08:16:10;;;;;;;0.50;0.50;;;;;;;;;;5027175;28;20204;-36
2023/10/21 08:18:37;;;;;;;0.63;0.40;;;;;;;;;;5030542;28;20223;-34
2023/10/21 08:21:04;;;;;;;0.33;0.33;;;;;;;;;;5024848;28;20230;-38
2023/10/21 08:23:32;;;;;;;2.93;0.40;;;;;;;;;;5034571;28;20675;-35
2023/10/21 08:26:00;;;;;;;0.90;0.40;;;;;;;;;;5024060;28;20236;-35
2023/10/21 08:28:27;;;;;;;0.40;0.40;;;;;;;;;;5034158;28;20247;-39
2023/10/21 08:30:55;;;;;;;1.40;0.50;;;;;;;;;;5034004;28;20282;-38
2023/10/21 08:33:22;;;;;;;0.30;0.30;;;;;;;;;;5034543;28;20215;-35
2023/10/21 08:35:49;;;;;;;0.40;0.40;;;;;;;;;;5016967;28;20211;-35
2023/10/21 08:38:17;;;;;;;0.97;0.47;;;;;;;;;;5017544;28;20212;-33
2023/10/21 08:40:46;;;;;;;0.33;0.33;;;;;;;;;;5025168;28;20207;-37
2023/10/21 08:43:17;;;;;;;0.40;0.40;;;;;;;;;;5018144;28;20191;-39
2023/10/21 08:45:45;;;;;;;3.50;0.50;;;;;;;;;;5033858;28;20214;-38
2023/10/21 08:48:13;;;;;;;0.60;0.53;;;;;;;;;;5025456;28;20214;-36
2023/10/21 08:50:40;;;;;;;1.03;0.30;;;;;;;;;;5023599;28;20207;-35
2023/10/21 08:53:11;;;;;;;0.50;0.50;;;;;;;;;;5016939;28;20217;-37
2023/10/21 08:55:39;;;;;;;0.40;0.40;;;;;;;;;;5018462;28;20247;-35
2023/10/21 08:58:07;;;;;;;0.60;0.60;;;;;;;;;;5024187;28;20210;-34
2023/10/21 09:00:35;;;;;;;1.33;0.50;;;;;;;;;;5026294;28;20206;-37
2023/10/21 09:03:03;;;;;;;0.30;0.30;;;;;;;;;;5031719;28;20246;-35
2023/10/21 09:05:30;;;;;;;1.10;0.40;;;;;;;;;;5026383;28;20203;-37
2023/10/21 09:07:58;;;;;;;0.60;0.60;;;;;;;;;;5025948;28;20301;-36
2023/10/21 09:10:25;;;;;;;1.20;0.70;;;;;;;;;;5029739;28;20782;-33
2023/10/21 09:12:52;;;;;;;0.90;0.70;;;;;;;;;;5034010;28;20210;-36
2023/10/21 09:15:21;;;;;;;0.80;0.80;;;;;;;;;;5027260;28;20641;-38
2023/10/21 09:17:52;;;;;;;1.53;0.47;;;;;;;;;;5033114;28;20208;-38
2023/10/21 09:20:21;;;;;;;1.13;0.63;;;;;;;;;;5023392;28;20588;-34
2023/10/21 09:22:51;;;;;;;0.97;0.40;;;;;;;;;;5025617;28;20227;-34
2023/10/21 09:25:19;;;;;;;1.57;0.50;;;;;;;;;;5024788;28;20303;-39
2023/10/21 09:27:46;;;;;;;1.20;0.30;;;;;;;;;;5020853;28;20205;-36
2023/10/21 09:30:17;;;;;;;1.43;0.47;;;;;;;;;;5032081;28;20295;-38
2023/10/21 09:32:46;;;;;;;0.40;0.40;;;;;;;;;;5029249;28;20203;-36
2023/10/21 09:35:21;;;;;;;0.40;0.40;;;;;;;;;;5029613;28;20212;-38
2023/10/21 09:37:48;;;;;;;0.30;0.30;;;;;;;;;;5025328;28;20290;-35
2023/10/21 09:40:16;;;;;;;0.90;0.33;;;;;;;;;;5025364;28;20252;-35
2023/10/21 09:42:44;;;;;;;2.43;0.37;;;;;;;;;;5028032;28;20230;-32
2023/10/21 09:45:13;;;;;;;1.77;0.30;;;;;;;;;;5035291;28;20210;-32
2023/10/21 09:47:41;;;;;;;0.27;0.27;;;;;;;;;;5033748;28;20202;-35
2023/10/21 09:50:13;;;;;;;0.60;0.60;;;;;;;;;;5024252;28;20289;-36
2023/10/21 09:52:45;;;;;;;1.10;0.27;;;;;;;;;;5031517;28;20199;-37
2023/10/21 09:55:13;;;;;;;2.93;0.57;;;;;;;;;;5023046;28;20204;-35
2023/10/21 09:57:41;;;;;;;2.17;0.40;;;;;;;;;;5023291;28;20209;-36
2023/10/21 10:00:10;;;;;;;0.47;0.30;;;;;;;;;;5030035;28;20230;-39
2023/10/21 10:02:37;;;;;;;0.20;0.20;;;;;;;;;;5031659;28;20230;-36
2023/10/21 10:05:07;;;;;;;1.00;0.40;;;;;;;;;;5027002;28;20206;-36
2023/10/21 10:07:36;;;;;;;1.57;0.20;;;;;;;;;;5029456;28;20267;-36
2023/10/21 10:10:06;;;;;;;0.60;0.60;;;;;;;;;;5019434;28;20238;-34
2023/10/21 10:12:36;;;;;;;0.60;0.60;;;;;;;;;;5025750;28;20206;-35
2023/10/21 10:15:27;;;;;;;1.20;0.40;;;;;;;;;;5025247;28;20210;-36
2023/10/21 10:17:54;;;;;;;0.37;0.37;;;;;;;;;;5023613;28;20211;-34
2023/10/21 10:20:24;;;;;;;0.57;0.30;;;;;;;;;;5027675;28;20222;-33
2023/10/21 10:22:56;;;;;;;1.10;0.30;;;;;;;;;;5026148;28;20261;-34
2023/10/21 10:25:27;;;;;;;0.63;0.40;;;;;;;;;;5014926;28;20205;-35
2023/10/21 10:27:58;;;;;;;0.37;0.37;;;;;;;;;;5021012;28;20216;-37
2023/10/21 10:30:26;;;;;;;1.57;0.77;;;;;;;;;;5027880;28;20255;-34
2023/10/21 10:32:53;;;;;;;1.70;0.40;;;;;;;;;;5024234;28;20308;-37
2023/10/21 10:35:30;;;;;;;2.37;0.80;;;;;;;;;;5020938;28;20262;-39
2023/10/21 10:37:59;;;;;;;1.40;0.50;;;;;;;;;;5028195;28;20217;-37
2023/10/21 10:40:34;;;;;;;0.77;0.40;;;;;;;;;;5023550;28;20231;-37
2023/10/21 10:43:03;;;;;;;1.03;0.30;;;;;;;;;;5022650;28;20253;-34
2023/10/21 10:45:30;;;;;;;0.97;0.53;;;;;;;;;;5031176;28;20717;-38
2023/10/21 10:48:00;;;;;;;0.40;0.40;;;;;;;;;;5020635;28;20213;-32
2023/10/21 10:50:28;;;;;;;1.47;0.50;;;;;;;;;;5026047;28;20223;-39
2023/10/21 10:52:55;;;;;;;1.07;0.50;;;;;;;;;;5027892;28;20202;-35
2023/10/21 10:55:23;;;;;;;1.57;0.40;;;;;;;;;;5024343;28;20211;-34
2023/10/21 10:57:52;;;;;;;1.30;0.50;;;;;;;;;;5020977;28;20207;-36
2023/10/21 11:00:25;;;;;;;0.53;0.37;;;;;;;;;;5031297;28;20231;-36
2023/10/21 11:02:53;;;;;;;1.10;0.50;;;;;;;;;;5027837;28;20302;-35
2023/10/21 11:05:21;;;;;;;0.33;0.30;;;;;;;;;;5027751;28;20616;-35
2023/10/21 11:07:48;;;;;;;0.80;0.47;;;;;;;;;;5027916;28;20356;-37
2023/10/21 11:10:22;;;;;;;0.60;0.40;;;;;;;;;;5027835;28;20227;-33
2023/10/21 11:12:49;;;;;;;0.83;0.40;;;;;;;;;;5029493;28;20210;-34
2023/10/21 11:15:17;;;;;;;1.53;0.43;;;;;;;;;;5032480;28;20219;-35
2023/10/21 11:17:46;;;;;;;0.60;0.60;;;;;;;;;;5032287;28;20206;-35
2023/10/21 11:20:14;;;;;;;0.47;0.30;;;;;;;;;;5019125;28;20242;-35
2023/10/21 11:22:41;;;;;;;0.80;0.30;;;;;;;;;;5027082;28;20222;-37
2023/10/21 11:25:08;;;;;;;1.47;0.40;;;;;;;;;;5027198;28;20224;-35
2023/10/21 11:27:36;;;;;;;1.27;0.40;;;;;;;;;;5032539;28;20209;-32
2023/10/21 11:30:07;;;;;;;2.10;0.40;;;;;;;;;;5029216;28;20226;-39
2023/10/21 11:32:36;;;;;;;1.83;0.40;;;;;;;;;;5027373;28;20202;-35
2023/10/21 11:35:04;;;;;;;0.83;0.40;;;;;;;;;;5025062;28;20207;-36
2023/10/21 11:37:31;;;;;;;0.20;0.20;;;;;;;;;;5028105;28;20294;-36
2023/10/21 11:39:58;;;;;;;0.73;0.40;;;;;;;;;;5025696;28;20237;-34
2023/10/21 11:42:27;;;;;;;1.63;0.40;;;;;;;;;;5023420;28;20583;-35
2023/10/21 11:44:57;;;;;;;0.90;0.30;;;;;;;;;;5032224;28;20206;-37
2023/10/21 11:47:25;;;;;;;0.40;0.40;;;;;;;;;;5029013;28;20208;-36
2023/10/21 11:49:54;;;;;;;0.57;0.40;;;;;;;;;;5032300;28;20241;-34
2023/10/21 11:52:22;;;;;;;1.60;0.47;;;;;;;;;;5021263;28;20288;-37
2023/10/21 11:54:50;;;;;;;0.77;0.43;;;;;;;;;;5032764;28;20210;-35
2023/10/21 11:57:41;;;;;;;0.83;0.30;;;;;;;;;;5031181;28;20246;-37
2023/10/21 12:17:50;;;;;;;0.60;0.60;;;;;;;;;;5019567;28;20213;-34
2023/10/21 12:23:12;;;;;;;1.40;0.40;;;;;;;;;;5031932;28;20215;-34
2023/10/21 12:26:17;;;;;;;1.37;0.50;;;;;;;;;;5023879;28;20221;-36
2023/10/21 12:34:38;;;;;;;1.27;0.33;;;;;;;;;;5139359;27;20262;-42
2023/10/21 12:37:29;;;;;;;0.57;0.20;;;;;;;;;;5167066;27;20206;-45
2023/10/21 12:40:28;;;;;;;0.43;0.23;;;;;;;;;;5158395;27;20222;-47
2023/10/21 12:42:50;;;;;;;0.67;0.43;;;;;;;;;;5145246;27;20240;-45
2023/10/21 12:45:19;;;;;;;0.50;0.50;;;;;;;;;;5158029;27;20286;-44
2023/10/21 12:47:48;;;;;;;0.30;0.30;;;;;;;;;;5158618;27;20207;-44
2023/10/21 12:50:15;;;;;;;0.77;0.30;;;;;;;;;;5146907;27;20232;-43
2023/10/21 12:52:43;;;;;;;0.73;0.33;;;;;;;;;;5155665;27;20272;-40
2023/10/21 12:55:11;;;;;;;0.50;0.30;;;;;;;;;;5161615;27;20203;-40
2023/10/21 12:57:39;;;;;;;0.57;0.30;;;;;;;;;;5154593;27;20202;-45
2023/10/21 13:00:09;;;;;;;0.93;0.40;;;;;;;;;;5152597;27;20258;-41
2023/10/21 13:02:39;;;;;;;0.40;0.30;;;;;;;;;;5157703;27;20255;-43
2023/10/21 13:05:08;;;;;;;1.30;0.30;;;;;;;;;;5142047;27;20203;-45
2023/10/21 13:07:38;;;;;;;3.00;0.40;;;;;;;;;;5139435;27;20204;-45
2023/10/21 13:10:09;;;;;;;0.63;0.30;;;;;;;;;;5151622;27;20237;-44
2023/10/21 13:12:37;;;;;;;0.63;0.40;;;;;;;;;;5153668;27;20195;-41
2023/10/21 13:15:09;;;;;;;0.30;0.30;;;;;;;;;;5149632;27;20211;-44
2023/10/21 13:17:36;;;;;;;1.07;0.40;;;;;;;;;;5149276;27;20209;-43
2023/10/21 13:20:04;;;;;;;1.37;0.50;;;;;;;;;;5143607;27;20227;-44
2023/10/21 13:22:33;;;;;;;0.37;0.27;;;;;;;;;;5151024;27;20206;-41
2023/10/21 13:25:07;;;;;;;0.57;0.50;;;;;;;;;;5147071;27;20569;-43
2023/10/21 13:27:35;;;;;;;0.77;0.50;;;;;;;;;;5151062;27;20194;-45
2023/10/21 13:30:10;;;;;;;0.30;0.30;;;;;;;;;;5149950;27;20248;-46
2023/10/21 13:32:37;;;;;;;0.73;0.40;;;;;;;;;;5138607;27;20201;-45
2023/10/21 13:35:09;;;;;;;0.30;0.30;;;;;;;;;;5135632;27;20217;-42
2023/10/21 13:37:38;;;;;;;1.13;0.40;;;;;;;;;;5153341;27;20588;-44
2023/10/21 13:40:12;;;;;;;0.90;0.47;;;;;;;;;;5153969;27;20252;-43
2023/10/21 13:42:40;;;;;;;0.50;0.47;;;;;;;;;;5130390;27;20266;-42
2023/10/21 13:45:13;;;;;;;0.30;0.30;;;;;;;;;;5137157;27;20203;-42
2023/10/21 13:47:41;;;;;;;2.30;0.40;;;;;;;;;;5129726;27;20263;-47
2023/10/21 13:50:13;;;;;;;2.50;0.70;;;;;;;;;;5130294;27;20223;-43
2023/10/21 13:52:42;;;;;;;0.97;0.47;;;;;;;;;;5135061;27;20299;-41
2023/10/21 13:55:14;;;;;;;0.50;0.50;;;;;;;;;;5130594;27;20233;-43
2023/10/21 13:57:41;;;;;;;1.33;0.40;;;;;;;;;;5132194;27;20226;-43
2023/10/21 14:00:25;;;;;;;1.17;0.80;;;;;;;;;;5136572;27;20260;-45
2023/10/21 14:02:52;;;;;;;0.50;0.50;;;;;;;;;;5135452;27;20219;-41
2023/10/21 14:05:20;;;;;;;1.23;0.60;;;;;;;;;;5127948;27;20209;-44
2023/10/21 14:07:49;;;;;;;1.17;0.60;;;;;;;;;;5134319;27;20257;-46
2023/10/21 14:10:17;;;;;;;1.40;0.50;;;;;;;;;;5126803;27;20259;-43
2023/10/21 14:12:44;;;;;;;1.23;0.60;;;;;;;;;;5130717;27;20220;-45
2023/10/21 14:15:17;;;;;;;2.27;0.77;;;;;;;;;;5131905;27;20195;-43
2023/10/21 14:17:44;;;;;;;1.40;0.73;;;;;;;;;;5134269;27;20211;-45
2023/10/21 14:20:12;;;;;;;0.63;0.60;;;;;;;;;;5129757;27;20221;-43
2023/10/21 14:22:39;;;;;;;0.50;0.50;;;;;;;;;;5127666;27;20229;-39
2023/10/21 14:25:08;;;;;;;0.40;0.40;;;;;;;;;;5128610;27;20204;-42
2023/10/21 14:27:37;;;;;;;0.67;0.50;;;;;;;;;;5129158;27;20261;-45
2023/10/21 14:30:08;;;;;;;0.60;0.60;;;;;;;;;;5134130;27;20243;-43
2023/10/21 14:32:35;;;;;;;1.10;0.50;;;;;;;;;;5134532;27;20283;-43
2023/10/21 14:35:04;;;;;;;0.67;0.67;;;;;;;;;;5134261;27;20212;-41
2023/10/21 14:37:31;;;;;;;1.13;0.60;;;;;;;;;;5128305;27;20233;-43
2023/10/21 14:39:59;;;;;;;1.13;0.97;;;;;;;;;;5126688;27;20223;-44
2023/10/21 14:42:27;;;;;;;1.67;0.70;;;;;;;;;;5123806;27;20210;-43
2023/10/21 14:44:57;;;;;;;0.90;0.60;;;;;;;;;;5130654;27;20208;-43
2023/10/21 14:47:25;;;;;;;0.50;0.40;;;;;;;;;;5133423;27;20205;-39
2023/10/21 14:49:53;;;;;;;1.60;1.00;;;;;;;;;;5136693;27;20224;-44
2023/10/21 14:52:21;;;;;;;0.93;0.70;;;;;;;;;;5128188;27;20215;-44
2023/10/21 14:54:48;;;;;;;3.53;0.80;;;;;;;;;;5130166;27;20207;-42
2023/10/21 14:57:15;;;;;;;1.23;0.73;;;;;;;;;;5124308;27;20267;-43
2023/10/21 14:59:44;;;;;;;1.10;0.80;;;;;;;;;;5136532;27;20323;-42
2023/10/21 15:02:12;;;;;;;0.60;0.60;;;;;;;;;;5136217;27;20277;-46
2023/10/21 15:04:40;;;;;;;1.03;1.00;;;;;;;;;;5117681;27;20257;-41
2023/10/21 15:07:07;;;;;;;2.20;1.00;;;;;;;;;;5127573;27;20210;-46
2023/10/21 15:09:34;;;;;;;1.20;0.90;;;;;;;;;;5139462;27;20759;-42
2023/10/21 15:12:01;;;;;;;1.97;0.87;;;;;;;;;;5127163;27;20259;-43
2023/10/21 15:14:29;;;;;;;3.67;1.97;;;;;;;;;;5139515;27;20377;-45
2023/10/21 15:16:57;;;;;;;1.77;1.27;;;;;;;;;;5142724;27;20216;-44
2023/10/21 15:19:24;;;;;;;1.03;0.90;;;;;;;;;;5126590;27;20258;-40
2023/10/21 15:21:52;;;;;;;2.93;0.77;;;;;;;;;;5129496;27;20661;-41
2023/10/21 15:24:19;;;;;;;1.07;0.93;;;;;;;;;;5135828;27;20208;-41
2023/10/21 15:26:46;;;;;;;1.23;1.00;;;;;;;;;;5125111;27;20221;-38
2023/10/21 15:29:13;;;;;;;1.67;0.90;;;;;;;;;;5129545;27;20262;-43
2023/10/21 15:31:41;;;;;;;2.93;0.63;;;;;;;;;;5141029;27;20261;-44
2023/10/21 15:34:10;;;;;;;0.73;0.70;;;;;;;;;;5128434;27;20204;-45
2023/10/21 15:36:37;;;;;;;2.60;0.97;;;;;;;;;;5118700;27;20232;-44
2023/10/21 15:39:11;;;;;;;0.70;0.70;;;;;;;;;;5137308;27;20227;-44
2023/10/21 15:41:38;;;;;;;1.77;1.10;;;;;;;;;;5123663;27;20200;-42
2023/10/21 15:44:06;;;;;;;2.33;2.13;;;;;;;;;;5130916;27;20683;-43
2023/10/21 15:46:33;;;;;;;2.40;2.03;;;;;;;;;;5135667;27;20653;-43
2023/10/21 15:49:00;;;;;;;3.87;2.20;;;;;;;;;;5130064;27;20228;-45
2023/10/21 15:51:30;;;;;;;2.30;2.10;;;;;;;;;;5128170;27;20228;-38
2023/10/21 15:53:57;;;;;;;3.33;2.00;;;;;;;;;;5132788;27;20213;-44
2023/10/21 15:56:25;;;;;;;1.73;1.63;;;;;;;;;;5128070;27;20213;-42
2023/10/21 15:58:52;;;;;;;1.93;1.30;;;;;;;;;;5145860;27;20283;-43
2023/10/21 16:01:19;;;;;;;1.53;1.17;;;;;;;;;;5142516;27;20200;-43
2023/10/21 16:03:46;;;;;;;1.20;1.10;;;;;;;;;;5132185;27;20219;-42
2023/10/21 16:06:16;;;;;;;0.80;0.80;;;;;;;;;;5119893;27;20233;-44
2023/10/21 16:08:44;;;;;;;1.03;0.80;;;;;;;;;;5125946;27;20320;-41
2023/10/21 16:11:12;;;;;;;1.07;0.90;;;;;;;;;;5124040;27;20310;-40
2023/10/21 16:13:39;;;;;;;1.33;0.87;;;;;;;;;;5130730;27;20214;-43
2023/10/21 16:16:07;;;;;;;0.90;0.87;;;;;;;;;;5130859;27;20210;-42
2023/10/21 16:18:34;;;;;;;2.13;1.10;;;;;;;;;;5138047;27;20242;-44
2023/10/21 16:21:01;;;;;;;1.77;0.93;;;;;;;;;;5131924;27;20205;-44
2023/10/21 16:23:28;;;;;;;1.10;1.00;;;;;;;;;;5129457;27;20294;-43
2023/10/21 16:25:57;;;;;;;1.87;1.40;;;;;;;;;;5126227;27;20225;-44
2023/10/21 16:28:24;;;;;;;1.07;1.03;;;;;;;;;;5136651;27;20313;-42
2023/10/21 16:30:51;;;;;;;2.03;0.90;;;;;;;;;;5135747;27;20211;-44
2023/10/21 16:33:18;;;;;;;2.67;1.20;;;;;;;;;;5148570;27;20299;-41